createdAt,value
2022-10-31T09:09:49.298Z,98.58
2022-10-31T09:14:51.678Z,100.00
2022-10-31T09:20:03.216Z,99.71
2022-10-31T09:25:06.917Z,99.72
2022-10-31T09:30:08.757Z,100.00
2022-10-31T09:35:09.969Z,100.00
2022-10-31T09:40:11.051Z,100.00
2022-10-31T09:45:23.711Z,100.00
2022-10-31T09:52:33.496Z,100.00
2022-10-31T09:57:41.547Z,100.00
2022-10-31T10:06:12.011Z,100.00
2022-10-31T10:15:11.398Z,100.00
2022-10-31T10:20:49.643Z,100.00
2022-10-31T10:26:13.265Z,99.89
2022-10-31T10:31:18.809Z,98.69
2022-10-31T10:36:32.126Z,100.00
2022-10-31T10:41:34.679Z,100.00
2022-10-31T10:47:02.102Z,100.00
2022-10-31T10:55:03.267Z,100.00
2022-10-31T11:00:24.432Z,100.00
2022-10-31T11:06:26.302Z,100.00
2022-10-31T11:11:30.880Z,100.00
2022-10-31T11:16:41.744Z,100.00
2022-10-31T11:21:49.830Z,100.00
2022-10-31T11:27:13.572Z,100.00
2022-10-31T11:32:26.571Z,100.00
2022-10-31T11:37:32.212Z,100.00
2022-10-31T11:42:41.771Z,100.00
2022-10-31T11:47:47.741Z,100.00
2022-10-31T11:52:49.686Z,99.14
2022-10-31T11:57:52.509Z,97.80
2022-10-31T12:03:21.519Z,98.38
2022-10-31T12:08:30.284Z,93.67
2022-10-31T12:13:35.810Z,96.30
2022-10-31T12:26:41.256Z,95.08
2022-10-31T12:34:47.750Z,91.26
2022-10-31T12:40:58.439Z,91.36
2022-10-31T12:46:01.208Z,91.54
2022-10-31T12:52:51.101Z,91.70
2022-10-31T12:57:58.897Z,91.63
2022-10-31T13:03:34.361Z,91.20
2022-10-31T13:08:52.727Z,93.20
2022-10-31T13:14:23.670Z,94.48
2022-10-31T13:19:42.805Z,96.31
2022-10-31T13:25:10.137Z,96.16
2022-10-31T13:30:21.082Z,95.16
2022-10-31T13:38:18.881Z,98.11
2022-10-31T13:44:00.096Z,96.53
2022-10-31T13:49:01.171Z,95.55
2022-10-31T13:54:19.962Z,97.01
2022-10-31T13:59:29.830Z,95.29
2022-10-31T14:04:56.293Z,95.72
2022-10-31T14:10:21.660Z,94.84
2022-10-31T14:15:25.964Z,81.35
2022-10-31T14:20:46.140Z,69.06
2022-10-31T14:25:46.913Z,68.75
2022-10-31T14:30:58.843Z,71.52
2022-10-31T14:36:19.993Z,75.99
2022-10-31T14:42:19.602Z,80.41
2022-10-31T14:50:34.985Z,84.15
2022-10-31T14:55:44.214Z,88.15
2022-10-31T15:00:45.138Z,91.32
2022-10-31T15:05:53.007Z,91.66
2022-10-31T15:10:53.722Z,92.55
2022-10-31T15:15:56.090Z,92.22
2022-10-31T15:20:57.142Z,94.26
2022-10-31T15:26:03.219Z,94.72
2022-10-31T15:31:04.227Z,96.49
2022-10-31T15:36:05.447Z,97.34
2022-10-31T15:41:31.233Z,89.01
2022-10-31T15:46:33.979Z,94.58
2022-10-31T15:51:35.181Z,97.27
2022-10-31T15:56:36.127Z,96.36
2022-10-31T16:01:37.078Z,95.53
2022-10-31T16:06:38.499Z,93.99
2022-10-31T16:11:39.752Z,91.81
2022-10-31T16:16:44.460Z,92.67
2022-10-31T16:21:48.208Z,95.27
2022-10-31T16:26:51.252Z,99.42
2022-10-31T16:31:52.024Z,100.00
2022-10-31T16:36:53.201Z,100.00
2022-10-31T16:41:56.271Z,100.00
2022-10-31T16:47:16.728Z,100.00
2022-10-31T16:52:18.021Z,100.00
2022-10-31T16:57:29.863Z,100.00
2022-10-31T17:02:30.651Z,100.00
2022-10-31T17:07:31.850Z,100.00
2022-10-31T17:12:32.890Z,100.00
2022-10-31T17:17:33.744Z,100.00
2022-10-31T17:22:34.472Z,100.00
2022-10-31T17:27:35.421Z,100.00
2022-10-31T17:32:36.144Z,100.00
2022-10-31T17:37:36.928Z,100.00
2022-10-31T17:42:37.843Z,100.00
2022-10-31T17:47:39.126Z,100.00
2022-10-31T17:52:39.859Z,100.00
2022-10-31T17:57:40.912Z,100.00
2022-10-31T18:02:41.785Z,100.00
2022-10-31T18:07:42.916Z,100.00
2022-10-31T18:12:43.671Z,100.00
2022-10-31T18:17:45.665Z,100.00
2022-10-31T18:22:46.405Z,100.00
2022-10-31T18:27:47.438Z,100.00
2022-10-31T18:32:50.453Z,100.00
2022-10-31T18:37:51.611Z,100.00
2022-10-31T18:42:52.325Z,100.00
2022-10-31T18:47:53.311Z,100.00
2022-10-31T18:52:54.326Z,100.00
2022-10-31T18:57:55.077Z,100.00
2022-10-31T19:02:56.657Z,100.00
2022-10-31T19:07:58.013Z,100.00
2022-10-31T19:12:59.974Z,100.00
2022-10-31T19:18:02.231Z,100.00
2022-10-31T19:23:03.430Z,100.00
2022-10-31T19:28:05.069Z,100.00
2022-10-31T19:33:06.458Z,100.00
2022-10-31T19:38:07.225Z,100.00
2022-10-31T19:43:08.170Z,100.00
2022-10-31T19:48:09.039Z,100.00
2022-10-31T19:53:09.961Z,100.00
2022-10-31T19:58:10.815Z,100.00
2022-10-31T20:03:11.622Z,100.00
2022-10-31T20:08:18.884Z,100.00
2022-10-31T20:13:19.649Z,100.00
2022-10-31T20:18:20.613Z,100.00
2022-10-31T20:23:21.562Z,100.00
2022-10-31T20:28:22.494Z,100.00
2022-10-31T20:33:23.224Z,100.00
2022-10-31T20:38:23.979Z,100.00
2022-10-31T20:43:24.740Z,100.00
2022-10-31T20:48:25.644Z,100.00
2022-10-31T20:53:26.987Z,100.00
2022-10-31T20:58:27.775Z,100.00
2022-10-31T21:03:28.777Z,100.00
2022-10-31T21:08:30.930Z,100.00
2022-10-31T21:13:40.316Z,100.00
2022-10-31T21:18:43.343Z,100.00
2022-10-31T21:23:44.745Z,100.00
2022-10-31T21:28:45.790Z,100.00
2022-10-31T21:33:46.778Z,100.00
2022-10-31T21:38:50.603Z,100.00
2022-10-31T21:43:55.702Z,100.00
2022-10-31T21:48:57.219Z,100.00
2022-10-31T21:54:16.128Z,100.00
2022-10-31T21:59:17.008Z,100.00
2022-10-31T22:04:18.703Z,100.00
2022-10-31T22:09:19.679Z,100.00
2022-10-31T22:14:20.529Z,100.00
2022-10-31T22:19:21.370Z,100.00
2022-10-31T22:24:22.173Z,100.00
2022-10-31T22:29:23.091Z,100.00
2022-10-31T22:34:23.801Z,100.00
2022-10-31T22:39:24.577Z,100.00
2022-10-31T22:44:25.286Z,100.00
2022-10-31T22:49:26.438Z,100.00
2022-10-31T22:54:27.202Z,100.00
2022-10-31T22:59:27.950Z,100.00
2022-10-31T23:04:28.704Z,100.00
2022-10-31T23:09:29.704Z,100.00
2022-10-31T23:14:30.609Z,100.00
2022-10-31T23:19:31.856Z,100.00
2022-10-31T23:24:38.643Z,100.00
2022-10-31T23:30:01.330Z,100.00
2022-10-31T23:35:06.135Z,100.00
2022-10-31T23:40:07.878Z,100.00
2022-10-31T23:45:08.739Z,100.00
2022-10-31T23:50:09.552Z,100.00
2022-10-31T23:55:10.293Z,100.00
